createdAt,value
2023-03-01T00:00:00.422Z,977.5
2023-03-01T00:01:00.423Z,977.5
2023-03-01T00:02:00.430Z,977.5
2023-03-01T00:03:00.416Z,977.5
2023-03-01T00:04:00.441Z,977.5
2023-03-01T00:05:00.427Z,978
2023-03-01T00:06:00.407Z,978
2023-03-01T00:07:00.411Z,977.7
2023-03-01T00:08:00.430Z,978
2023-03-01T00:09:00.425Z,977.7
2023-03-01T00:10:00.461Z,977.7
2023-03-01T00:11:00.518Z,977.5
2023-03-01T00:12:00.409Z,977.7
2023-03-01T00:13:00.638Z,977.5
2023-03-01T00:14:00.428Z,977.5
2023-03-01T00:15:01.212Z,977.7
2023-03-01T00:16:00.436Z,977.7
2023-03-01T00:17:00.555Z,977.7
2023-03-01T00:18:00.509Z,977.5
2023-03-01T00:19:00.418Z,977.5
2023-03-01T00:20:00.463Z,977.5
2023-03-01T00:21:00.437Z,977.5
2023-03-01T00:22:00.446Z,977.3
2023-03-01T00:23:00.449Z,977.5
2023-03-01T00:24:00.520Z,977.5
2023-03-01T00:25:00.439Z,977.3
2023-03-01T00:26:00.449Z,977.3
2023-03-01T00:27:00.462Z,977.5
2023-03-01T00:28:00.430Z,977.3
2023-03-01T00:29:00.444Z,977.5
2023-03-01T00:30:00.447Z,977.3
2023-03-01T00:31:00.491Z,977.3
2023-03-01T00:32:00.488Z,977.5
2023-03-01T00:33:00.443Z,977.5
2023-03-01T00:34:00.449Z,977.3
2023-03-01T00:35:00.454Z,977.5
2023-03-01T00:36:00.457Z,977.5
2023-03-01T00:37:00.446Z,977.7
2023-03-01T00:38:00.450Z,977.5
2023-03-01T00:39:00.459Z,977.5
2023-03-01T00:40:00.450Z,977.3
2023-03-01T00:41:00.464Z,977.5
2023-03-01T00:42:00.452Z,977.5
2023-03-01T00:43:00.454Z,977.5
2023-03-01T00:44:00.448Z,977.5
2023-03-01T00:45:00.469Z,977.5
2023-03-01T00:46:00.498Z,977.5
2023-03-01T00:47:00.468Z,977.7
2023-03-01T00:48:00.462Z,977.5
2023-03-01T00:49:00.493Z,977.7
2023-03-01T00:50:00.525Z,977.7
2023-03-01T00:51:00.492Z,977.5
2023-03-01T00:52:00.468Z,977.5
2023-03-01T00:53:00.469Z,977.5
2023-03-01T00:54:00.486Z,977.5
2023-03-01T00:55:00.480Z,977.5
2023-03-01T00:56:00.515Z,977.7
2023-03-01T00:57:00.476Z,977.5
2023-03-01T00:58:00.481Z,977.5
2023-03-01T00:59:00.489Z,977.5
2023-03-01T01:00:00.484Z,977.5
2023-03-01T01:01:00.483Z,977.5
2023-03-01T01:02:00.490Z,977.5
2023-03-01T01:03:00.481Z,977.5
2023-03-01T01:04:00.487Z,977.5
2023-03-01T01:05:00.536Z,977.5
2023-03-01T01:06:00.491Z,977.5
2023-03-01T01:07:00.480Z,977.3
2023-03-01T01:08:00.472Z,977.5
2023-03-01T01:09:00.481Z,977.5
2023-03-01T01:10:00.492Z,977.3
2023-03-01T01:11:00.502Z,977.3
2023-03-01T01:12:00.504Z,977.5
2023-03-01T01:13:00.493Z,977.5
2023-03-01T01:14:00.485Z,977.5
2023-03-01T01:15:00.508Z,977.5
2023-03-01T01:16:00.585Z,977.5
2023-03-01T01:17:00.483Z,977.5
2023-03-01T01:18:00.503Z,977.5
2023-03-01T01:19:00.529Z,977.5
2023-03-01T01:20:00.509Z,977.5
2023-03-01T01:21:00.502Z,977.5
2023-03-01T01:22:00.488Z,977.5
2023-03-01T01:23:00.490Z,977.5
2023-03-01T01:24:00.499Z,977.3
2023-03-01T01:25:00.514Z,977.3
2023-03-01T01:26:00.509Z,977.3
2023-03-01T01:27:00.492Z,977.5
2023-03-01T01:28:00.496Z,977.5
2023-03-01T01:29:00.498Z,977.5
2023-03-01T01:30:00.515Z,977.5
2023-03-01T01:31:00.537Z,977.5
2023-03-01T01:32:00.642Z,977.3
2023-03-01T01:33:00.530Z,977.3
2023-03-01T01:34:00.571Z,977.3
2023-03-01T01:35:00.522Z,977.3
2023-03-01T01:36:00.535Z,977.3
2023-03-01T01:37:00.502Z,977.3
2023-03-01T01:38:00.515Z,977.1
2023-03-01T01:39:00.505Z,977.1
2023-03-01T01:40:01.624Z,977.1
2023-03-01T01:41:00.530Z,977.1
2023-03-01T01:42:00.511Z,977.1
2023-03-01T01:43:00.527Z,977.5
2023-03-01T01:44:00.519Z,977.3
2023-03-01T01:45:00.522Z,977.1
2023-03-01T01:46:00.620Z,977.1
2023-03-01T01:47:00.558Z,977.3
2023-03-01T01:48:00.564Z,977.1
2023-03-01T01:49:00.515Z,977.1
2023-03-01T01:50:00.531Z,977.1
2023-03-01T01:51:00.531Z,977.1
2023-03-01T01:52:00.522Z,977.1
2023-03-01T01:53:00.531Z,977.1
2023-03-01T01:54:00.524Z,977.1
2023-03-01T01:55:00.528Z,977.1
2023-03-01T01:56:00.535Z,977.1
2023-03-01T01:57:00.540Z,977.3
2023-03-01T01:58:00.533Z,977.5
2023-03-01T01:59:00.540Z,977.5
2023-03-01T02:00:00.610Z,977.5
2023-03-01T02:01:00.586Z,977.5
2023-03-01T02:02:00.535Z,977.5
2023-03-01T02:03:00.698Z,977.5
2023-03-01T02:04:00.551Z,977.5
2023-03-01T02:05:00.553Z,977.5
2023-03-01T02:06:00.552Z,977.5
2023-03-01T02:07:00.569Z,977.3
2023-03-01T02:08:00.553Z,977.3
2023-03-01T02:09:00.533Z,977.3
2023-03-01T02:10:00.562Z,977.1
2023-03-01T02:11:00.538Z,977.3
2023-03-01T02:12:00.551Z,977.5
2023-03-01T02:13:00.537Z,977.5
2023-03-01T02:14:00.547Z,977.5
2023-03-01T02:15:00.575Z,977.3
2023-03-01T02:16:00.632Z,977.5
2023-03-01T02:17:00.543Z,977.5
2023-03-01T02:18:00.545Z,977.5
2023-03-01T02:19:00.573Z,977.3
2023-03-01T02:20:00.573Z,977.5
2023-03-01T02:21:00.572Z,977.3
2023-03-01T02:22:00.601Z,977.3
2023-03-01T02:23:00.563Z,977.3
2023-03-01T02:24:00.550Z,977.3
2023-03-01T02:25:00.580Z,977.3
2023-03-01T02:26:00.572Z,977.1
2023-03-01T02:27:00.570Z,977.5
2023-03-01T02:28:00.569Z,977.5
2023-03-01T02:29:00.565Z,977.5
2023-03-01T02:30:00.578Z,977.5
2023-03-01T02:31:00.604Z,977.1
2023-03-01T02:32:00.631Z,977.1
2023-03-01T02:33:00.573Z,977.5
2023-03-01T02:34:00.553Z,977.5
2023-03-01T02:35:00.608Z,977.5
2023-03-01T02:36:00.561Z,977.5
2023-03-01T02:37:00.599Z,977.5
2023-03-01T02:38:00.588Z,977.5
2023-03-01T02:39:00.578Z,977.5
2023-03-01T02:40:00.623Z,977.5
2023-03-01T02:41:00.566Z,977.5
2023-03-01T02:42:00.581Z,977.3
2023-03-01T02:43:00.598Z,977.3
2023-03-01T02:44:00.590Z,977.5
2023-03-01T02:45:00.583Z,977.5
2023-03-01T02:46:00.615Z,977.3
2023-03-01T02:47:00.626Z,977.5
2023-03-01T02:48:00.579Z,977.5
2023-03-01T02:49:00.583Z,977.5
2023-03-01T02:50:00.603Z,977.3
2023-03-01T02:51:00.592Z,977.3
2023-03-01T02:52:00.601Z,977.3
2023-03-01T02:53:00.579Z,977.3
2023-03-01T02:54:00.580Z,977.1
2023-03-01T02:55:00.599Z,977.3
2023-03-01T02:56:00.612Z,977.3
2023-03-01T02:57:00.768Z,977.3
2023-03-01T02:58:00.600Z,977.5
2023-03-01T02:59:00.615Z,977.5
2023-03-01T03:00:00.680Z,977.5
2023-03-01T03:01:01.569Z,977.3
2023-03-01T03:02:01.531Z,977.5
2023-03-01T03:03:01.512Z,977.5
2023-03-01T03:04:01.575Z,977.5
2023-03-01T03:05:01.510Z,977.5
2023-03-01T03:06:01.485Z,977.7
2023-03-01T03:07:01.492Z,977.5
2023-03-01T03:08:01.593Z,977.5
2023-03-01T03:09:01.490Z,977.5
2023-03-01T03:10:01.577Z,977.5
2023-03-01T03:11:01.506Z,977.5
2023-03-01T03:12:01.511Z,978
2023-03-01T03:13:01.522Z,977.7
2023-03-01T03:14:01.524Z,977.7
2023-03-01T03:15:01.529Z,977.5
2023-03-01T03:16:01.531Z,977.5
2023-03-01T03:17:01.520Z,977.5
2023-03-01T03:18:01.518Z,977.7
2023-03-01T03:19:01.508Z,977.5
2023-03-01T03:20:01.748Z,977.5
2023-03-01T03:21:01.618Z,977.5
2023-03-01T03:22:01.683Z,977.5
2023-03-01T03:23:02.504Z,977.5
2023-03-01T03:24:01.536Z,977.5
2023-03-01T03:25:01.738Z,977.7
2023-03-01T03:26:01.759Z,977.7
2023-03-01T03:27:01.694Z,977.7
2023-03-01T03:28:01.698Z,977.7
2023-03-01T03:29:01.526Z,978
2023-03-01T03:30:01.932Z,978
2023-03-01T03:31:01.566Z,978
2023-03-01T03:32:01.589Z,977.7
2023-03-01T03:33:01.544Z,978
2023-03-01T03:34:01.533Z,978
2023-03-01T03:35:01.531Z,978
2023-03-01T03:36:01.564Z,978
2023-03-01T03:37:01.534Z,978
2023-03-01T03:38:01.537Z,978
2023-03-01T03:39:01.535Z,978
2023-03-01T03:40:01.545Z,978
2023-03-01T03:41:01.549Z,978.2
2023-03-01T03:42:01.550Z,978.2
2023-03-01T03:43:01.552Z,978
2023-03-01T03:44:01.520Z,978.2
2023-03-01T03:45:01.550Z,978.2
2023-03-01T03:46:01.621Z,978.2
2023-03-01T03:47:01.523Z,978
2023-03-01T03:48:01.593Z,978
2023-03-01T03:49:01.527Z,978
2023-03-01T03:50:01.589Z,978
2023-03-01T03:51:01.562Z,978.2
2023-03-01T03:52:01.555Z,978.2
2023-03-01T03:53:01.539Z,978.2
2023-03-01T03:54:01.550Z,978
2023-03-01T03:55:01.583Z,978
2023-03-01T03:56:01.607Z,978
2023-03-01T03:57:01.554Z,978
2023-03-01T03:58:01.536Z,978
2023-03-01T03:59:01.539Z,978.2
2023-03-01T04:00:01.609Z,978.4
2023-03-01T04:01:01.574Z,978.4
2023-03-01T04:02:01.547Z,978.4
2023-03-01T04:03:01.626Z,978.4
2023-03-01T04:04:01.562Z,978.4
2023-03-01T04:05:01.543Z,978.4
2023-03-01T04:06:01.570Z,978.4
2023-03-01T04:07:01.544Z,978.4
2023-03-01T04:08:01.565Z,978.4
2023-03-01T04:09:01.581Z,978.2
2023-03-01T04:10:01.569Z,978
2023-03-01T04:11:01.577Z,978.4
2023-03-01T04:12:01.553Z,978.2
2023-03-01T04:13:01.574Z,978.4
2023-03-01T04:14:01.551Z,978.4
2023-03-01T04:15:01.584Z,978.4
2023-03-01T04:16:01.556Z,978.4
2023-03-01T04:17:01.559Z,978.4
2023-03-01T04:18:01.572Z,978.2
2023-03-01T04:19:01.598Z,978.2
2023-03-01T04:20:01.624Z,978.2
2023-03-01T04:21:01.560Z,978.4
2023-03-01T04:22:01.564Z,978.2
2023-03-01T04:23:01.584Z,978.2
2023-03-01T04:24:01.570Z,978.2
2023-03-01T04:25:01.587Z,978.2
2023-03-01T04:26:01.572Z,978.2
2023-03-01T04:27:01.575Z,978.4
2023-03-01T04:28:01.604Z,978.4
2023-03-01T04:29:01.571Z,978.2
2023-03-01T04:30:01.641Z,978.2
2023-03-01T04:31:01.594Z,978.2
2023-03-01T04:32:01.786Z,978.2
2023-03-01T04:33:01.582Z,978.2
2023-03-01T04:34:01.574Z,978.2
2023-03-01T04:35:01.620Z,978.2
2023-03-01T04:36:01.700Z,978.4
2023-03-01T04:37:01.603Z,978.4
2023-03-01T04:38:01.603Z,978.6
2023-03-01T04:39:01.604Z,978.4
2023-03-01T04:40:01.644Z,978.4
2023-03-01T04:41:01.628Z,978.4
2023-03-01T04:42:01.591Z,978.4
2023-03-01T04:43:01.586Z,978.4
2023-03-01T04:44:01.614Z,978.4
2023-03-01T04:45:01.617Z,978.4
2023-03-01T04:46:01.793Z,978.4
2023-03-01T04:47:01.606Z,978.4
2023-03-01T04:48:01.618Z,978.4
2023-03-01T04:49:01.623Z,978.4
2023-03-01T04:50:01.629Z,978.4
2023-03-01T04:51:01.623Z,978.4
2023-03-01T04:52:01.637Z,978.4
2023-03-01T04:53:01.617Z,978.4
2023-03-01T04:54:01.637Z,978.4
2023-03-01T04:55:01.618Z,978.4
2023-03-01T04:56:01.626Z,978.4
2023-03-01T04:57:01.649Z,978.6
2023-03-01T04:58:01.612Z,978.6
2023-03-01T04:59:01.622Z,978.8
2023-03-01T05:00:01.688Z,978.8
2023-03-01T05:01:01.657Z,978.6
2023-03-01T05:02:01.637Z,978.4
2023-03-01T05:03:01.748Z,978.4
2023-03-01T05:04:01.629Z,978.4
2023-03-01T05:05:01.622Z,978.4
2023-03-01T05:06:01.652Z,978.6
2023-03-01T05:07:01.626Z,978.4
2023-03-01T05:08:01.646Z,978.4
2023-03-01T05:09:01.653Z,978.4
2023-03-01T05:10:01.714Z,978.4
2023-03-01T05:11:01.659Z,978.4
2023-03-01T05:12:01.679Z,978.4
2023-03-01T05:13:01.698Z,978.4
2023-03-01T05:14:01.657Z,978.6
2023-03-01T05:15:01.739Z,978.8
2023-03-01T05:16:01.723Z,978.4
2023-03-01T05:17:01.660Z,978.4
2023-03-01T05:18:01.706Z,978.4
2023-03-01T05:19:01.752Z,978.4
2023-03-01T05:20:01.669Z,978.4
2023-03-01T05:21:01.649Z,978.4
2023-03-01T05:22:01.801Z,978.4
2023-03-01T05:23:01.685Z,978.4
2023-03-01T05:24:01.657Z,978.4
2023-03-01T05:25:01.649Z,978.4
2023-03-01T05:26:01.717Z,978.4
2023-03-01T05:27:01.644Z,978.4
2023-03-01T05:28:01.647Z,978.4
2023-03-01T05:29:01.055Z,978.4
2023-03-01T05:30:00.457Z,978.4
2023-03-01T05:31:00.602Z,978.4
2023-03-01T05:32:00.546Z,978.4
2023-03-01T05:33:00.678Z,978.4
2023-03-01T05:34:00.593Z,978.4
2023-03-01T05:35:00.614Z,978.4
2023-03-01T05:36:00.696Z,978.4
2023-03-01T05:37:00.528Z,978.4
2023-03-01T05:38:00.592Z,978.4
2023-03-01T05:39:00.563Z,978.4
2023-03-01T05:40:00.737Z,978.4
2023-03-01T05:41:00.618Z,978.4
2023-03-01T05:42:00.698Z,978.6
2023-03-01T05:43:00.626Z,978.4
2023-03-01T05:44:00.607Z,978.6
2023-03-01T05:45:00.698Z,978.6
2023-03-01T05:46:00.740Z,978.6
2023-03-01T05:47:00.712Z,978.6
2023-03-01T05:48:00.743Z,978.6
2023-03-01T05:49:00.567Z,978.8
2023-03-01T05:50:00.748Z,978.8
2023-03-01T05:51:00.692Z,978.8
2023-03-01T05:52:00.629Z,978.8
2023-03-01T05:53:01.494Z,978.8
2023-03-01T05:54:00.613Z,978.8
2023-03-01T05:55:00.781Z,978.8
2023-03-01T05:56:00.693Z,978.8
2023-03-01T05:57:00.642Z,978.8
2023-03-01T05:58:00.606Z,978.8
2023-03-01T05:59:00.579Z,978.8
2023-03-01T06:00:00.655Z,978.8
2023-03-01T06:01:00.571Z,978.8
2023-03-01T06:02:00.622Z,978.8
2023-03-01T06:03:00.729Z,978.8
2023-03-01T06:04:00.556Z,978.8
2023-03-01T06:05:00.757Z,978.8
2023-03-01T06:06:00.488Z,978.8
2023-03-01T06:07:00.515Z,978.8
2023-03-01T06:08:00.505Z,978.8
2023-03-01T06:09:00.519Z,979
2023-03-01T06:10:00.524Z,979
2023-03-01T06:11:01.302Z,979.3
2023-03-01T06:12:00.499Z,979
2023-03-01T06:13:00.482Z,979.3
2023-03-01T06:14:00.496Z,979
2023-03-01T06:15:00.522Z,978.8
2023-03-01T06:16:00.565Z,979
2023-03-01T06:17:00.517Z,979
2023-03-01T06:18:00.693Z,979
2023-03-01T06:19:00.505Z,978.8
2023-03-01T06:20:00.536Z,978.8
2023-03-01T06:21:00.494Z,979
2023-03-01T06:22:00.518Z,978.8
2023-03-01T06:23:00.500Z,979
2023-03-01T06:24:00.525Z,979.3
2023-03-01T06:25:00.535Z,979.3
2023-03-01T06:26:00.518Z,979.3
2023-03-01T06:27:00.497Z,978.8
2023-03-01T06:28:00.516Z,979.3
2023-03-01T06:29:00.501Z,979.3
2023-03-01T06:30:00.534Z,979.3
2023-03-01T06:31:01.456Z,979.5
2023-03-01T06:32:00.584Z,979.3
2023-03-01T06:33:00.517Z,979.5
2023-03-01T06:34:00.561Z,979.5
2023-03-01T06:35:00.538Z,979.5
2023-03-01T06:36:00.535Z,979.3
2023-03-01T06:37:00.542Z,979.5
2023-03-01T06:38:00.529Z,979.7
2023-03-01T06:39:00.532Z,979.5
2023-03-01T06:40:00.539Z,979.5
2023-03-01T06:41:00.526Z,979.5
2023-03-01T06:42:00.520Z,979.3
2023-03-01T06:43:00.524Z,979.3
2023-03-01T06:44:00.540Z,979.3
2023-03-01T06:45:00.545Z,979.3
2023-03-01T06:46:00.549Z,979.3
2023-03-01T06:47:00.595Z,979.3
2023-03-01T06:48:00.522Z,979.3
2023-03-01T06:49:00.546Z,979.3
2023-03-01T06:50:00.569Z,979
2023-03-01T06:51:01.327Z,979.3
2023-03-01T06:52:00.552Z,979.3
2023-03-01T06:53:00.532Z,979.3
2023-03-01T06:54:01.769Z,979.3
2023-03-01T06:55:00.547Z,979.3
2023-03-01T06:56:00.560Z,979.3
2023-03-01T06:57:00.565Z,979.3
2023-03-01T06:58:00.532Z,979.3
2023-03-01T06:59:01.392Z,979.3
2023-03-01T07:00:00.544Z,979.3
2023-03-01T07:01:00.569Z,979.3
2023-03-01T07:02:00.674Z,979.3
2023-03-01T07:03:00.581Z,979.3
2023-03-01T07:04:00.535Z,979.3
2023-03-01T07:05:00.564Z,979.3
2023-03-01T07:06:00.537Z,979.3
2023-03-01T07:07:00.552Z,979.3
2023-03-01T07:08:00.552Z,979
2023-03-01T07:09:00.555Z,979.3
2023-03-01T07:10:00.590Z,979.3
2023-03-01T07:11:00.547Z,979.3
2023-03-01T07:12:00.572Z,979.3
2023-03-01T07:13:00.575Z,979.3
2023-03-01T07:14:00.555Z,979.3
2023-03-01T07:15:00.576Z,979.3
2023-03-01T07:16:00.594Z,979
2023-03-01T07:17:00.572Z,979.3
2023-03-01T07:18:00.578Z,979
2023-03-01T07:19:00.901Z,978.8
2023-03-01T07:20:00.569Z,979
2023-03-01T07:21:00.557Z,979.3
2023-03-01T07:22:00.587Z,979
2023-03-01T07:23:00.572Z,979.3
2023-03-01T07:24:00.576Z,979.3
2023-03-01T07:25:00.575Z,979.3
2023-03-01T07:26:00.577Z,979.3
2023-03-01T07:27:00.592Z,979
2023-03-01T07:28:00.579Z,979
2023-03-01T07:29:00.582Z,979
2023-03-01T07:30:00.571Z,978.8
2023-03-01T07:31:00.590Z,978.8
2023-03-01T07:32:00.681Z,978.8
2023-03-01T07:33:00.778Z,978.8
2023-03-01T07:34:00.583Z,978.8
2023-03-01T07:35:00.564Z,978.8
2023-03-01T07:36:00.599Z,978.8
2023-03-01T07:37:00.595Z,978.8
2023-03-01T07:38:00.576Z,978.8
2023-03-01T07:39:00.596Z,979
2023-03-01T07:40:00.590Z,979
2023-03-01T07:41:00.574Z,979
2023-03-01T07:42:00.590Z,978.8
2023-03-01T07:43:00.574Z,979
2023-03-01T07:44:00.578Z,979
2023-03-01T07:45:00.591Z,979
2023-03-01T07:46:00.658Z,978.8
2023-03-01T07:47:00.600Z,978.8
2023-03-01T07:48:00.584Z,978.8
2023-03-01T07:49:00.583Z,979
2023-03-01T07:50:00.603Z,979
2023-03-01T07:51:00.632Z,979
2023-03-01T07:52:00.606Z,978.8
2023-03-01T07:53:00.587Z,978.8
2023-03-01T07:54:00.632Z,978.8
2023-03-01T07:55:00.607Z,978.8
2023-03-01T07:56:00.605Z,978.8
2023-03-01T07:57:00.633Z,978.8
2023-03-01T07:58:00.603Z,978.8
2023-03-01T07:59:00.593Z,978.8
2023-03-01T08:00:00.612Z,978.8
2023-03-01T08:01:00.614Z,979
2023-03-01T08:02:00.695Z,978.8
2023-03-01T08:03:00.598Z,978.8
2023-03-01T08:04:00.598Z,978.8
2023-03-01T08:05:00.607Z,978.8
2023-03-01T08:06:00.608Z,978.8
2023-03-01T08:07:00.597Z,978.8
2023-03-01T08:08:00.609Z,978.8
2023-03-01T08:09:00.620Z,978.8
2023-03-01T08:10:00.686Z,978.8
2023-03-01T08:11:00.618Z,978.8
2023-03-01T08:12:00.666Z,978.8
2023-03-01T08:13:00.650Z,978.8
2023-03-01T08:14:00.658Z,979
2023-03-01T08:15:00.640Z,979
2023-03-01T08:16:00.657Z,978.8
2023-03-01T08:17:00.615Z,978.6
2023-03-01T08:18:00.628Z,978.8
2023-03-01T08:19:00.626Z,978.4
2023-03-01T08:20:00.640Z,978.8
2023-03-01T08:21:00.642Z,978.8
2023-03-01T08:22:00.625Z,978.4
2023-03-01T08:23:00.645Z,978.6
2023-03-01T08:24:00.677Z,978.8
2023-03-01T08:25:00.649Z,978.8
2023-03-01T08:26:00.627Z,978.8
2023-03-01T08:27:00.629Z,978.8
2023-03-01T08:28:00.619Z,978.8
2023-03-01T08:29:00.619Z,978.8
2023-03-01T08:30:00.664Z,978.6
2023-03-01T08:31:00.638Z,978.8
2023-03-01T08:32:00.821Z,978.6
2023-03-01T08:33:00.643Z,978.6
2023-03-01T08:34:00.690Z,978.4
2023-03-01T08:35:00.654Z,978.4
2023-03-01T08:36:00.686Z,978.4
2023-03-01T08:37:00.647Z,978.4
2023-03-01T08:38:00.652Z,978.4
2023-03-01T08:39:00.641Z,978.6
2023-03-01T08:40:00.663Z,978.4
2023-03-01T08:41:00.660Z,978.4
2023-03-01T08:42:00.636Z,978.4
2023-03-01T08:43:00.644Z,978.4
2023-03-01T08:44:00.654Z,978
2023-03-01T08:45:00.654Z,978
2023-03-01T08:46:00.689Z,978
2023-03-01T08:47:00.642Z,978
2023-03-01T08:48:00.665Z,978
2023-03-01T08:49:00.639Z,978
2023-03-01T08:50:00.662Z,978
2023-03-01T08:51:00.657Z,978
2023-03-01T08:52:00.654Z,978
2023-03-01T08:53:00.688Z,978
2023-03-01T08:54:00.646Z,977.5
2023-03-01T08:55:00.676Z,977.3
2023-03-01T08:56:00.668Z,977.5
2023-03-01T08:57:00.646Z,978
2023-03-01T08:58:00.696Z,978
2023-03-01T08:59:00.655Z,977.7
2023-03-01T09:00:00.662Z,977.7
2023-03-01T09:01:00.657Z,977.7
2023-03-01T09:02:00.655Z,977.5
2023-03-01T09:03:00.697Z,977.3
2023-03-01T09:04:00.755Z,977.3
2023-03-01T09:05:00.679Z,977.5
2023-03-01T09:06:00.679Z,977.5
2023-03-01T09:07:00.656Z,977.5
2023-03-01T09:08:00.713Z,977.5
2023-03-01T09:09:00.665Z,977.5
2023-03-01T09:10:00.678Z,977.5
2023-03-01T09:11:00.679Z,977.5
2023-03-01T09:12:00.681Z,977.3
2023-03-01T09:13:00.670Z,977.3
2023-03-01T09:14:00.693Z,977.3
2023-03-01T09:15:00.668Z,977.1
2023-03-01T09:16:00.680Z,977.3
2023-03-01T09:17:00.702Z,977.5
2023-03-01T09:18:00.673Z,977.1
2023-03-01T09:19:00.683Z,977.1
2023-03-01T09:20:00.791Z,976.9
2023-03-01T09:21:00.759Z,976.7
2023-03-01T09:22:00.687Z,976.9
2023-03-01T09:23:00.686Z,976.9
2023-03-01T09:24:00.679Z,976.9
2023-03-01T09:25:00.697Z,977.1
2023-03-01T09:26:00.693Z,977.1
2023-03-01T09:27:00.677Z,977.1
2023-03-01T09:28:00.721Z,977.1
2023-03-01T09:29:00.699Z,977.1
2023-03-01T09:30:00.692Z,977.1
2023-03-01T09:31:00.747Z,976.9
2023-03-01T09:32:00.798Z,976.9
2023-03-01T09:33:00.725Z,976.7
2023-03-01T09:34:00.684Z,976.9
2023-03-01T09:35:00.696Z,976.7
2023-03-01T09:36:00.747Z,976.7
2023-03-01T09:37:00.687Z,976.7
2023-03-01T09:38:00.717Z,976.2
2023-03-01T09:39:00.713Z,976.4
2023-03-01T09:40:00.705Z,976.4
2023-03-01T09:41:00.723Z,976.4
2023-03-01T09:42:00.731Z,976
2023-03-01T09:43:01.224Z,976
2023-03-01T09:44:00.717Z,976.2
2023-03-01T09:45:00.729Z,976.2
2023-03-01T09:46:00.747Z,976.2
2023-03-01T09:47:00.716Z,976.2
2023-03-01T09:48:00.705Z,976.2
2023-03-01T09:49:00.720Z,976.2
2023-03-01T09:50:00.746Z,976.4
2023-03-01T09:51:00.719Z,976.7
2023-03-01T09:52:00.707Z,976.2
2023-03-01T09:53:00.732Z,976.2
2023-03-01T09:54:00.715Z,976.2
2023-03-01T09:55:01.111Z,976.2
2023-03-01T09:56:00.711Z,976.2
2023-03-01T09:57:01.435Z,976.2
2023-03-01T09:58:00.760Z,975.8
2023-03-01T09:59:00.722Z,975.8
2023-03-01T10:00:00.739Z,975.4
2023-03-01T10:01:00.752Z,975.4
2023-03-01T10:02:00.722Z,975.4
2023-03-01T10:03:00.735Z,975.6
2023-03-01T10:04:00.845Z,975.8
2023-03-01T10:05:00.986Z,975.8
2023-03-01T10:06:00.751Z,975.4
2023-03-01T10:07:00.728Z,975.1
2023-03-01T10:08:00.719Z,975.8
2023-03-01T10:09:00.810Z,975.6
2023-03-01T10:10:00.778Z,975.8
2023-03-01T10:11:00.820Z,975.8
2023-03-01T10:12:00.812Z,975.8
2023-03-01T10:13:00.853Z,975.8
2023-03-01T10:14:00.903Z,975.4
2023-03-01T10:15:00.831Z,975.1
2023-03-01T10:16:00.946Z,975.4
2023-03-01T10:17:00.920Z,974.9
2023-03-01T10:18:00.895Z,975.1
2023-03-01T10:19:00.868Z,975.4
2023-03-01T10:20:00.884Z,975.4
2023-03-01T10:21:00.985Z,975.4
2023-03-01T10:22:00.912Z,975.6
2023-03-01T10:23:00.929Z,975.4
2023-03-01T10:24:00.904Z,975.4
2023-03-01T10:25:00.999Z,975.1
2023-03-01T10:26:01.006Z,975.1
2023-03-01T10:27:01.012Z,975.4
2023-03-01T10:28:01.046Z,975.4
2023-03-01T10:29:01.026Z,975.4
2023-03-01T10:30:01.001Z,975.4
2023-03-01T10:31:01.148Z,975.4
2023-03-01T10:32:01.024Z,975.6
2023-03-01T10:33:02.928Z,975.8
2023-03-01T10:34:01.026Z,975.6
2023-03-01T10:35:00.830Z,975.4
2023-03-01T10:36:01.079Z,975.4
2023-03-01T10:37:01.014Z,975.1
2023-03-01T10:38:00.962Z,974.9
2023-03-01T10:39:00.762Z,974.7
2023-03-01T10:40:00.900Z,974.5
2023-03-01T10:41:01.007Z,974.7
2023-03-01T10:42:00.856Z,974.9
2023-03-01T10:43:00.839Z,974.5
2023-03-01T10:44:00.765Z,974.5
2023-03-01T10:45:00.856Z,974.5
2023-03-01T10:46:01.067Z,974.3
2023-03-01T10:47:00.784Z,974.5
2023-03-01T10:48:00.781Z,974.7
2023-03-01T10:49:00.801Z,974.5
2023-03-01T10:50:00.833Z,974.7
2023-03-01T10:51:00.784Z,974.7
2023-03-01T10:52:00.776Z,974.5
2023-03-01T10:53:00.847Z,974.7
2023-03-01T10:54:00.792Z,974.7
2023-03-01T10:55:00.805Z,974.9
2023-03-01T10:56:00.778Z,974.5
2023-03-01T10:57:00.791Z,974
2023-03-01T10:58:00.809Z,973.8
2023-03-01T10:59:00.781Z,973.6
2023-03-01T11:00:00.791Z,974
2023-03-01T11:01:00.774Z,974.5
2023-03-01T11:02:02.227Z,974.3
2023-03-01T11:03:00.783Z,974
2023-03-01T11:04:00.807Z,974
2023-03-01T11:05:00.890Z,974
2023-03-01T11:06:00.798Z,974.3
2023-03-01T11:07:00.796Z,974
2023-03-01T11:08:00.779Z,973.8
2023-03-01T11:09:00.830Z,973.8
2023-03-01T11:10:00.817Z,973.6
2023-03-01T11:11:00.803Z,973.8
2023-03-01T11:12:00.798Z,973.8
2023-03-01T11:13:00.784Z,973.6
2023-03-01T11:14:00.791Z,973.6
2023-03-01T11:15:00.817Z,974
2023-03-01T11:16:00.861Z,973.8
2023-03-01T11:17:00.789Z,973.6
2023-03-01T11:18:12.686Z,973.4
2023-03-01T11:19:00.840Z,973.2
2023-03-01T11:20:02.945Z,973.2
2023-03-01T11:21:00.815Z,973.2
2023-03-01T11:22:00.863Z,973.2
2023-03-01T11:23:00.810Z,972.7
2023-03-01T11:24:00.825Z,973.2
2023-03-01T11:25:09.943Z,973.2
2023-03-01T11:26:00.843Z,973.2
2023-03-01T11:27:00.807Z,972.7
2023-03-01T11:28:00.832Z,972.7
2023-03-01T11:29:00.772Z,973.2
2023-03-01T11:30:00.762Z,973.2
2023-03-01T11:31:08.310Z,972.7
2023-03-01T11:32:00.747Z,972.7
2023-03-01T11:33:00.808Z,972.7
2023-03-01T11:34:00.682Z,973.2
2023-03-01T11:35:00.600Z,973.2
2023-03-01T11:36:00.599Z,973.2
2023-03-01T11:37:00.560Z,973.4
2023-03-01T11:38:00.533Z,973.6
2023-03-01T11:39:00.470Z,973.2
2023-03-01T11:40:00.477Z,973.6
2023-03-01T11:41:00.504Z,973.6
2023-03-01T11:42:09.285Z,973.4
2023-03-01T11:43:00.419Z,973.6
2023-03-01T11:44:00.698Z,973.2
2023-03-01T11:45:00.401Z,973
2023-03-01T11:46:00.676Z,973.2
2023-03-01T11:47:01.600Z,973
2023-03-01T11:48:00.399Z,973.2
2023-03-01T11:49:00.421Z,973.2
2023-03-01T11:50:00.428Z,973.4
2023-03-01T11:51:00.434Z,973.2
2023-03-01T11:52:00.409Z,973
2023-03-01T11:53:00.400Z,973
2023-03-01T11:54:00.428Z,973
2023-03-01T11:55:00.402Z,972.5
2023-03-01T11:56:00.420Z,972.3
2023-03-01T11:57:00.471Z,972.3
2023-03-01T11:58:00.402Z,972.3
2023-03-01T11:59:00.456Z,972.3
2023-03-01T12:00:00.413Z,972.7
2023-03-01T12:01:00.420Z,972.7
2023-03-01T12:02:00.478Z,972.3
2023-03-01T12:03:00.414Z,972.3
2023-03-01T12:04:00.478Z,972.5
2023-03-01T12:05:00.430Z,973
2023-03-01T12:06:00.436Z,972.3
2023-03-01T12:07:00.428Z,973
2023-03-01T12:08:00.429Z,972.7
2023-03-01T12:09:00.443Z,972.3
2023-03-01T12:10:00.441Z,972.3
2023-03-01T12:11:00.448Z,972.7
2023-03-01T12:12:00.420Z,972.7
2023-03-01T12:13:00.418Z,972.7
2023-03-01T12:14:00.441Z,972.7
2023-03-01T12:15:00.427Z,972.7
2023-03-01T12:16:00.576Z,972.5
2023-03-01T12:17:00.557Z,972.5
2023-03-01T12:18:00.450Z,972.3
2023-03-01T12:19:00.427Z,972.3
2023-03-01T12:20:00.463Z,972.3
2023-03-01T12:21:00.449Z,971.9
2023-03-01T12:22:00.440Z,972.3
2023-03-01T12:23:14.655Z,971.7
2023-03-01T12:24:00.453Z,972.1
2023-03-01T12:25:00.460Z,971.7
2023-03-01T12:26:00.472Z,971.4
2023-03-01T12:27:00.520Z,971.4
2023-03-01T12:28:00.442Z,971.4
2023-03-01T12:29:00.457Z,972.1
2023-03-01T12:30:00.470Z,972.3
2023-03-01T12:31:00.463Z,972.1
2023-03-01T12:32:00.604Z,972.1
2023-03-01T12:33:00.566Z,972.1
2023-03-01T12:34:00.454Z,971.9
2023-03-01T12:35:00.447Z,971.7
2023-03-01T12:36:00.544Z,971.4
2023-03-01T12:37:00.443Z,971.9
2023-03-01T12:38:00.446Z,971.9
2023-03-01T12:39:00.467Z,971.4
2023-03-01T12:40:00.488Z,971.4
2023-03-01T12:41:00.473Z,971.4
2023-03-01T12:42:00.451Z,970.8
2023-03-01T12:43:00.452Z,970.8
2023-03-01T12:44:00.473Z,971
2023-03-01T12:45:00.465Z,971
2023-03-01T12:46:00.570Z,970.8
2023-03-01T12:47:00.504Z,971
2023-03-01T12:48:00.464Z,971
2023-03-01T12:49:00.462Z,971
2023-03-01T12:50:00.479Z,971
2023-03-01T12:51:00.513Z,970.4
2023-03-01T12:52:00.467Z,970.1
2023-03-01T12:53:00.491Z,970.6
2023-03-01T12:54:00.484Z,970.4
2023-03-01T12:55:00.467Z,971
2023-03-01T12:56:00.495Z,970.6
2023-03-01T12:57:00.471Z,970.6
2023-03-01T12:58:00.473Z,970.1